Time;durP1;ratioP1;P1;durP2;ratioP2;P2;SDS_P1;SDS_P2;PMS_P1;PMS_P2;Temp;Humidity;BMP_temperature;BMP_pressure;BME280_temperature;BME280_humidity;BME280_pressure;Samples;Min_cycle;Max_cycle;Signal;HPM_P1;HPM_P2
2021/06/09 04:11:28;;;;;;;0.30;0.30;;;18.50;99.90;;;;;;5495060;23;20706;-76
2021/06/09 04:13:57;;;;;;;0.20;0.20;;;18.50;99.90;;;;;;4953947;29;20726;-76
2021/06/09 04:16:27;;;;;;;0.30;0.30;;;18.50;99.90;;;;;;4954820;29;20662;-74
2021/06/09 04:18:56;;;;;;;0.20;0.20;;;18.60;99.90;;;;;;4953764;29;20213;-74
2021/06/09 04:21:25;;;;;;;0.28;0.28;;;18.70;99.90;;;;;;4953656;29;20295;-74
2021/06/09 04:23:53;;;;;;;0.20;0.20;;;18.70;99.90;;;;;;4953654;29;20249;-74
2021/06/09 04:26:21;;;;;;;0.30;0.30;;;18.80;99.90;;;;;;4949470;29;20218;-73
2021/06/09 04:28:50;;;;;;;0.30;0.30;;;19.00;99.90;;;;;;4953403;29;20197;-74
2021/06/09 04:31:17;;;;;;;0.22;0.22;;;18.90;99.90;;;;;;4953286;29;20252;-75
2021/06/09 04:33:46;;;;;;;0.30;0.30;;;19.00;99.90;;;;;;4953219;29;20689;-73
2021/06/09 04:36:15;;;;;;;0.20;0.20;;;19.10;99.90;;;;;;4953146;29;20252;-72
2021/06/09 04:38:42;;;;;;;0.30;0.30;;;19.30;99.90;;;;;;4953260;29;20664;-73
2021/06/09 04:41:10;;;;;;;0.30;0.30;;;19.40;99.90;;;;;;4943148;29;20289;-74
2021/06/09 04:43:38;;;;;;;0.30;0.30;;;19.50;99.90;;;;;;4943932;29;20733;-75
2021/06/09 04:46:08;;;;;;;0.20;0.20;;;19.40;99.90;;;;;;4943729;29;20217;-74
2021/06/09 04:48:35;;;;;;;0.20;0.20;;;19.60;99.90;;;;;;4942379;29;20222;-74
2021/06/09 04:51:03;;;;;;;0.30;0.30;;;19.70;99.90;;;;;;4943030;29;20225;-74
2021/06/09 04:53:31;;;;;;;0.20;0.20;;;19.80;99.90;;;;;;4944579;29;20624;-74
2021/06/09 04:55:58;;;;;;;0.20;0.20;;;19.90;99.90;;;;;;4946005;29;20198;-74
2021/06/09 04:58:26;;;;;;;0.30;0.30;;;20.10;99.90;;;;;;4947264;29;20202;-74
2021/06/09 05:00:53;;;;;;;0.20;0.20;;;20.10;99.90;;;;;;4946940;29;20217;-73
2021/06/09 05:03:22;;;;;;;0.20;0.20;;;20.20;99.90;;;;;;4945124;29;20201;-74
2021/06/09 05:05:51;;;;;;;0.30;0.30;;;20.20;99.90;;;;;;4948429;28;20276;-74
2021/06/09 05:08:18;;;;;;;0.20;0.20;;;20.30;99.90;;;;;;4946290;29;20233;-74
2021/06/09 05:10:46;;;;;;;0.20;0.20;;;20.30;99.90;;;;;;4953302;29;20299;-74
2021/06/09 05:13:24;;;;;;;0.20;0.20;;;20.40;99.90;;;;;;4956180;29;20624;-76
2021/06/09 05:15:54;;;;;;;0.20;0.20;;;20.50;99.90;;;;;;4954687;29;20236;-76
2021/06/09 05:18:26;;;;;;;0.20;0.20;;;20.60;99.90;;;;;;4954854;29;20730;-75
2021/06/09 05:20:55;;;;;;;0.20;0.20;;;20.70;99.90;;;;;;4955674;29;20713;-75
2021/06/09 05:23:27;;;;;;;0.30;0.30;;;20.80;99.90;;;;;;4956412;29;20213;-76
2021/06/09 05:25:55;;;;;;;0.20;0.20;;;20.90;99.90;;;;;;4954828;29;20264;-74
2021/06/09 05:28:27;;;;;;;0.20;0.20;;;20.90;99.90;;;;;;4956108;29;20252;-74
2021/06/09 05:30:57;;;;;;;0.30;0.30;;;20.90;99.90;;;;;;4955510;29;20641;-75
2021/06/09 05:33:27;;;;;;;0.20;0.20;;;21.60;99.90;;;;;;4956488;29;20310;-75
2021/06/09 05:35:56;;;;;;;0.20;0.20;;;21.00;99.90;;;;;;4955758;29;20229;-74
2021/06/09 05:38:25;;;;;;;0.22;0.22;;;21.10;99.90;;;;;;4956265;29;20283;-75
2021/06/09 05:40:57;;;;;;;0.20;0.20;;;21.00;99.90;;;;;;4956052;29;20229;-75
2021/06/09 05:43:26;;;;;;;0.20;0.20;;;21.00;99.90;;;;;;4956232;29;20185;-75
2021/06/09 05:45:53;;;;;;;0.20;0.20;;;21.00;99.90;;;;;;4955764;29;20209;-75
2021/06/09 05:48:21;;;;;;;0.30;0.30;;;21.20;99.90;;;;;;4955851;29;20251;-75
2021/06/09 05:50:55;;;;;;;0.20;0.20;;;21.30;99.90;;;;;;4955714;29;20292;-75
2021/06/09 05:53:23;;;;;;;0.20;0.20;;;21.40;99.70;;;;;;4955968;29;20629;-75
2021/06/09 05:55:50;;;;;;;0.20;0.20;;;21.30;99.20;;;;;;4955651;29;20233;-75
2021/06/09 05:58:19;;;;;;;0.20;0.20;;;21.30;99.20;;;;;;4955623;29;20236;-75
2021/06/09 06:01:02;;;;;;;0.20;0.20;;;21.40;99.30;;;;;;4956063;29;20320;-75
2021/06/09 06:03:30;;;;;;;0.20;0.20;;;21.30;99.10;;;;;;4956206;29;20277;-75
2021/06/09 06:06:01;;;;;;;0.20;0.20;;;21.20;99.00;;;;;;4954832;28;20212;-75
2021/06/09 06:08:30;;;;;;;0.20;0.20;;;21.20;98.60;;;;;;4955362;29;20213;-75
2021/06/09 06:11:02;;;;;;;0.20;0.20;;;21.20;99.20;;;;;;4955138;29;20233;-75
2021/06/09 06:13:29;;;;;;;0.20;0.20;;;21.30;99.00;;;;;;4955609;29;20296;-75
2021/06/09 06:16:01;;;;;;;0.20;0.20;;;21.60;98.90;;;;;;4955142;29;20655;-75
2021/06/09 06:18:31;;;;;;;0.20;0.20;;;21.60;98.10;;;;;;4955163;29;20572;-75
2021/06/09 06:21:00;;;;;;;0.20;0.20;;;21.50;97.80;;;;;;4955041;29;20225;-75
2021/06/09 06:23:28;;;;;;;0.20;0.20;;;21.60;98.20;;;;;;4955488;29;20253;-75
2021/06/09 06:26:09;;;;;;;0.20;0.20;;;21.80;97.90;;;;;;4954875;29;20685;-75
2021/06/09 06:28:39;;;;;;;0.30;0.30;;;21.80;98.10;;;;;;4955158;29;20776;-75
2021/06/09 06:31:11;;;;;;;0.20;0.20;;;22.00;96.90;;;;;;4954923;29;20289;-75
2021/06/09 06:33:40;;;;;;;0.20;0.20;;;22.20;99.90;;;;;;4955124;29;20190;-75
2021/06/09 06:36:11;;;;;;;0.20;0.20;;;22.20;96.80;;;;;;4954940;29;20201;-75
2021/06/09 06:38:40;;;;;;;0.20;0.20;;;22.10;96.50;;;;;;4955090;29;20261;-75
2021/06/09 06:41:09;;;;;;;0.20;0.20;;;21.80;95.10;;;;;;4955053;29;20257;-75
2021/06/09 06:43:38;;;;;;;0.20;0.20;;;21.80;96.30;;;;;;4954619;29;20576;-75
2021/06/09 06:46:06;;;;;;;0.20;0.20;;;22.00;95.50;;;;;;4954821;29;20205;-75
2021/06/09 06:48:34;;;;;;;0.20;0.20;;;22.10;95.90;;;;;;4954874;29;20237;-75
2021/06/09 06:51:03;;;;;;;0.20;0.20;;;22.30;96.60;;;;;;4954674;29;20718;-75
2021/06/09 06:53:33;;;;;;;0.20;0.20;;;22.50;96.30;;;;;;4954621;29;20313;-75
2021/06/09 06:56:01;;;;;;;0.20;0.20;;;22.60;99.90;;;;;;4954704;29;20205;-75
2021/06/09 06:58:31;;;;;;;0.30;0.30;;;22.80;94.20;;;;;;4954408;29;20565;-75
2021/06/09 07:00:58;;;;;;;0.20;0.20;;;22.90;94.40;;;;;;4954388;29;20261;-74
2021/06/09 07:03:27;;;;;;;0.20;0.20;;;22.80;93.80;;;;;;4954426;29;20205;-74
2021/06/09 07:05:55;;;;;;;0.20;0.20;;;23.00;94.00;;;;;;4954351;29;20209;-74
2021/06/09 07:08:23;;;;;;;0.10;0.10;;;23.10;93.40;;;;;;4954551;29;20280;-75
2021/06/09 07:10:53;;;;;;;0.20;0.20;;;23.10;92.90;;;;;;4954122;29;20240;-74
2021/06/09 07:13:22;;;;;;;0.20;0.20;;;23.00;92.50;;;;;;4954336;29;20734;-75
2021/06/09 07:15:53;;;;;;;0.20;0.20;;;23.00;92.50;;;;;;4954144;29;20678;-75
2021/06/09 07:18:23;;;;;;;0.20;0.20;;;23.10;92.80;;;;;;4953865;28;20190;-75
2021/06/09 07:20:51;;;;;;;0.20;0.20;;;23.00;92.60;;;;;;4954239;29;20228;-75
2021/06/09 07:23:19;;;;;;;0.20;0.20;;;23.20;93.60;;;;;;4954200;28;20259;-75
2021/06/09 07:25:47;;;;;;;0.17;0.17;;;;;;;;;;4954151;29;20264;-75
2021/06/09 07:28:19;;;;;;;0.20;0.20;;;23.70;91.30;;;;;;4954107;29;20280;-75
2021/06/09 07:30:50;;;;;;;0.10;0.10;;;23.70;91.50;;;;;;4954142;29;20702;-75
2021/06/09 07:33:17;;;;;;;0.20;0.20;;;23.80;91.70;;;;;;4953946;29;20546;-77
2021/06/09 07:35:44;;;;;;;0.20;0.20;;;23.80;98.60;;;;;;4953866;29;20256;-77
2021/06/09 07:38:17;;;;;;;0.10;0.10;;;23.70;97.20;;;;;;4954146;29;20251;-76
2021/06/09 07:40:50;;;;;;;0.10;0.10;;;23.60;96.70;;;;;;4954122;29;20228;-77
2021/06/09 07:43:24;;;;;;;0.20;0.20;;;23.80;96.00;;;;;;4954020;29;20233;-77
2021/06/09 07:45:53;;;;;;;0.10;0.10;;;24.10;99.90;;;;;;4953776;29;20587;-77
2021/06/09 07:48:23;;;;;;;0.20;0.20;;;24.10;89.30;;;;;;4953711;29;20694;-76
2021/06/09 07:50:54;;;;;;;0.10;0.10;;;24.60;99.90;;;;;;4954010;29;20633;-77
2021/06/09 07:53:22;;;;;;;0.15;0.15;;;;;;;;;;4953787;29;20201;-75
2021/06/09 07:55:50;;;;;;;0.10;0.10;;;24.70;86.80;;;;;;4953670;29;20740;-75
2021/06/09 07:58:26;;;;;;;0.17;0.17;;;24.90;87.10;;;;;;4953968;29;20268;-75
2021/06/09 08:00:56;;;;;;;0.20;0.20;;;25.00;86.00;;;;;;4953730;29;20721;-76
2021/06/09 08:03:24;;;;;;;0.10;0.10;;;24.50;92.10;;;;;;4953764;29;20217;-76
2021/06/09 08:05:52;;;;;;;0.10;0.10;;;24.30;91.00;;;;;;4953679;29;20202;-76
2021/06/09 08:08:19;;;;;;;0.10;0.10;;;24.30;90.50;;;;;;4953690;29;20225;-76
2021/06/09 08:10:47;;;;;;;0.10;0.10;;;24.40;90.80;;;;;;4954440;29;20655;-76
2021/06/09 08:13:17;;;;;;;0.10;0.10;;;24.70;91.80;;;;;;4953652;29;20670;-77
2021/06/09 08:15:47;;;;;;;0.10;0.10;;;24.70;89.70;;;;;;4953667;29;20586;-76
2021/06/09 08:18:14;;;;;;;0.10;0.10;;;25.00;89.40;;;;;;4953684;29;20205;-76
2021/06/09 08:21:02;;;;;;;0.10;0.10;;;24.40;90.40;;;;;;4953710;29;20225;-77
2021/06/09 08:23:29;;;;;;;0.10;0.10;;;24.50;88.90;;;;;;4953565;29;20245;-76
2021/06/09 08:25:57;;;;;;;0.10;0.10;;;24.80;90.20;;;;;;4955631;29;20214;-76
2021/06/09 08:28:24;;;;;;;0.10;0.10;;;24.40;90.20;;;;;;4958315;28;20233;-76
2021/06/09 08:30:53;;;;;;;0.10;0.10;;;24.50;90.30;;;;;;4959727;29;20269;-76
2021/06/09 08:33:20;;;;;;;0.20;0.20;;;24.30;89.00;;;;;;4958058;29;20209;-75
2021/06/09 08:35:48;;;;;;;0.20;0.20;;;24.50;90.00;;;;;;4957650;29;20260;-77
2021/06/09 08:38:15;;;;;;;0.10;0.10;;;24.60;87.80;;;;;;4957148;29;20280;-77
2021/06/09 08:40:43;;;;;;;0.10;0.10;;;24.60;88.70;;;;;;4956992;29;20230;-76
2021/06/09 08:43:12;;;;;;;0.10;0.10;;;24.70;89.00;;;;;;4957120;29;20209;-77
2021/06/09 08:45:39;;;;;;;0.20;0.20;;;24.40;87.00;;;;;;4956948;29;20709;-77
2021/06/09 08:48:10;;;;;;;0.10;0.10;;;24.10;83.90;;;;;;4956732;29;20244;-76
2021/06/09 08:50:38;;;;;;;0.20;0.20;;;24.20;82.90;;;;;;4956733;29;20229;-76
2021/06/09 08:53:06;;;;;;;0.10;0.10;;;24.20;83.30;;;;;;4956960;29;20205;-76
2021/06/09 08:55:35;;;;;;;0.10;0.10;;;24.40;83.70;;;;;;4956548;29;20687;-77
2021/06/09 08:58:04;;;;;;;0.20;0.20;;;24.30;82.90;;;;;;4956638;29;20667;-77
2021/06/09 09:00:33;;;;;;;0.20;0.20;;;24.30;83.90;;;;;;4956668;29;20273;-77
2021/06/09 09:03:01;;;;;;;0.20;0.20;;;24.30;84.30;;;;;;4956520;29;20242;-77
2021/06/09 09:05:30;;;;;;;0.10;0.10;;;24.50;93.40;;;;;;4956297;29;20207;-76
2021/06/09 09:07:57;;;;;;;0.20;0.20;;;24.10;93.10;;;;;;4956422;29;20253;-76
2021/06/09 09:10:26;;;;;;;0.13;0.13;;;24.30;92.90;;;;;;4956440;29;20207;-76
2021/06/09 09:12:55;;;;;;;0.20;0.20;;;24.40;93.30;;;;;;4956723;29;20202;-76
2021/06/09 09:15:23;;;;;;;0.10;0.10;;;24.30;93.00;;;;;;4940748;29;20264;-77
2021/06/09 09:17:53;;;;;;;0.20;0.20;;;24.50;93.50;;;;;;4956374;29;20606;-76
2021/06/09 09:20:24;;;;;;;0.10;0.10;;;24.80;92.70;;;;;;4956240;29;20649;-76
2021/06/09 09:22:57;;;;;;;0.20;0.20;;;25.10;90.30;;;;;;4956876;29;20201;-77
2021/06/09 09:25:26;;;;;;;0.20;0.20;;;25.40;82.80;;;;;;4955883;29;20205;-76
2021/06/09 09:27:56;;;;;;;0.20;0.20;;;25.30;82.90;;;;;;4956041;29;20221;-77
2021/06/09 09:30:24;;;;;;;0.10;0.10;;;;;;;;;;4955978;29;20209;-77
2021/06/09 09:33:01;;;;;;;0.10;0.10;;;25.90;92.00;;;;;;4956288;29;20225;-77
2021/06/09 09:35:30;;;;;;;0.10;0.10;;;25.80;84.30;;;;;;4955839;29;20726;-76
2021/06/09 09:38:20;;;;;;;0.10;0.10;;;25.80;83.60;;;;;;4955963;29;20755;-77
2021/06/09 09:41:08;;;;;;;0.20;0.20;;;25.60;84.50;;;;;;4955981;28;20311;-77
2021/06/09 09:43:45;;;;;;;0.10;0.10;;;25.40;86.50;;;;;;4958381;29;20295;-77
2021/06/09 09:46:15;;;;;;;0.20;0.20;;;25.20;84.70;;;;;;4956463;29;20218;-76
2021/06/09 09:49:03;;;;;;;0.10;0.10;;;25.30;84.60;;;;;;4955970;29;20228;-76
2021/06/09 09:51:32;;;;;;;0.10;0.10;;;25.50;84.10;;;;;;4956108;29;20233;-77
2021/06/09 09:54:03;;;;;;;0.20;0.20;;;25.90;84.80;;;;;;4957742;29;20229;-77
2021/06/09 09:56:32;;;;;;;0.20;0.20;;;25.90;84.00;;;;;;4957165;29;20202;-77
2021/06/09 09:59:03;;;;;;;0.10;0.10;;;;;;;;;;4957534;29;20558;-77
2021/06/09 10:01:32;;;;;;;0.10;0.10;;;26.10;79.80;;;;;;4957614;29;20234;-77
2021/06/09 10:04:01;;;;;;;0.17;0.17;;;26.10;78.90;;;;;;4958699;29;20208;-77
2021/06/09 10:06:30;;;;;;;0.10;0.10;;;;;;;;;;4958958;29;20264;-78
2021/06/09 10:09:07;;;;;;;0.10;0.10;;;26.50;76.10;;;;;;4958371;29;20225;-77
2021/06/09 10:11:40;;;;;;;0.10;0.10;;;26.60;75.60;;;;;;4957364;29;20279;-75
2021/06/09 10:14:20;;;;;;;0.10;0.10;;;26.90;76.70;;;;;;4956213;29;20283;-75
2021/06/09 10:16:52;;;;;;;0.10;0.10;;;27.00;72.80;;;;;;4955178;29;20248;-75
2021/06/09 10:19:19;;;;;;;0.10;0.10;;;27.10;73.50;;;;;;4955252;29;20202;-74
2021/06/09 10:21:51;;;;;;;0.10;0.10;;;27.10;87.80;;;;;;4955122;29;20714;-76
2021/06/09 10:24:22;;;;;;;0.10;0.10;;;27.00;84.40;;;;;;4978797;23;20260;-75
2021/06/09 10:26:53;;;;;;;0.10;0.10;;;27.00;66.70;;;;;;4935521;29;20277;-75
2021/06/09 10:29:22;;;;;;;0.20;0.20;;;27.00;67.80;;;;;;4935984;29;20699;-75
2021/06/09 10:31:52;;;;;;;0.10;0.10;;;26.00;69.20;;;;;;4936006;29;20206;-75
2021/06/09 10:34:23;;;;;;;0.10;0.10;;;25.40;84.20;;;;;;4935766;29;20273;-75
2021/06/09 10:36:52;;;;;;;0.10;0.10;;;25.60;71.10;;;;;;4935608;29;20202;-75
2021/06/09 10:39:23;;;;;;;0.10;0.10;;;25.70;69.40;;;;;;4935602;29;20205;-75
2021/06/09 10:41:54;;;;;;;0.10;0.10;;;26.00;70.00;;;;;;4935756;29;20205;-75
2021/06/09 10:44:23;;;;;;;0.10;0.10;;;26.20;85.40;;;;;;4935684;29;20277;-74
2021/06/09 10:46:54;;;;;;;0.10;0.10;;;26.20;72.30;;;;;;4935670;29;20264;-75
2021/06/09 10:49:23;;;;;;;0.10;0.10;;;26.40;71.90;;;;;;4935583;29;20225;-75
2021/06/09 10:51:54;;;;;;;0.10;0.10;;;26.50;71.00;;;;;;4935152;29;20210;-74
2021/06/09 10:54:24;;;;;;;0.10;0.10;;;26.80;83.60;;;;;;4935676;29;20269;-75
2021/06/09 10:56:55;;;;;;;0.10;0.10;;;26.80;72.20;;;;;;4935680;29;20261;-74
2021/06/09 10:59:25;;;;;;;0.10;0.10;;;26.40;61.60;;;;;;4935502;29;20222;-75
2021/06/09 11:01:57;;;;;;;0.10;0.10;;;26.40;65.40;;;;;;4935380;29;20246;-75
2021/06/09 11:04:25;;;;;;;0.10;0.10;;;26.30;78.10;;;;;;4935559;29;20262;-75
2021/06/09 11:06:55;;;;;;;0.20;0.20;;;26.20;65.70;;;;;;4935457;29;20261;-75
2021/06/09 11:09:26;;;;;;;0.10;0.10;;;26.30;65.40;;;;;;4935301;29;20230;-75
2021/06/09 11:12:16;;;;;;;0.10;0.10;;;26.20;68.50;;;;;;4935278;29;20241;-75
2021/06/09 11:14:45;;;;;;;0.10;0.10;;;26.40;69.50;;;;;;4935321;29;20256;-75
2021/06/09 11:17:13;;;;;;;0.10;0.10;;;26.40;68.50;;;;;;4935187;29;20206;-74
2021/06/09 11:19:45;;;;;;;0.10;0.10;;;26.30;67.10;;;;;;4935144;29;20694;-75
2021/06/09 11:22:24;;;;;;;0.10;0.10;;;26.30;68.50;;;;;;4935264;29;20276;-75
2021/06/09 11:25:10;;;;;;;0.10;0.10;;;26.30;69.10;;;;;;4934896;29;20296;-75
2021/06/09 11:27:47;;;;;;;0.10;0.10;;;26.60;70.20;;;;;;4935136;29;20630;-75
2021/06/09 11:30:55;;;;;;;0.10;0.10;;;26.90;70.00;;;;;;4935050;29;20303;-75
2021/06/09 11:33:51;;;;;;;0.10;0.10;;;27.20;67.90;;;;;;4935259;29;20202;-75
2021/06/09 11:36:38;;;;;;;0.10;0.10;;;27.20;67.70;;;;;;4934591;29;20285;-75
2021/06/09 11:39:10;;;;;;;0.10;0.10;;;27.50;65.70;;;;;;4934958;29;20233;-75
2021/06/09 11:41:41;;;;;;;0.10;0.10;;;27.50;63.80;;;;;;4934841;29;20205;-75
2021/06/09 11:44:25;;;;;;;0.10;0.10;;;27.60;61.00;;;;;;4935142;29;20685;-75
2021/06/09 11:46:53;;;;;;;0.10;0.10;;;27.50;61.20;;;;;;4934515;29;20241;-74
2021/06/09 11:49:25;;;;;;;0.10;0.10;;;27.70;61.80;;;;;;4934741;29;20651;-75
2021/06/09 11:52:01;;;;;;;0.10;0.10;;;28.00;61.50;;;;;;4934841;29;20234;-75
2021/06/09 11:54:32;;;;;;;0.10;0.10;;;28.00;73.50;;;;;;4935266;29;20284;-75
2021/06/09 11:57:06;;;;;;;0.10;0.10;;;28.00;58.80;;;;;;4935095;29;20212;-75
2021/06/09 11:59:35;;;;;;;0.10;0.10;;;28.00;57.40;;;;;;4934997;29;20198;-75
2021/06/09 12:02:05;;;;;;;0.10;0.10;;;28.10;59.00;;;;;;4934823;29;20556;-75
2021/06/09 12:04:38;;;;;;;0.10;0.10;;;28.10;58.00;;;;;;4937713;29;20264;-75
2021/06/09 12:07:07;;;;;;;0.10;0.10;;;28.20;57.40;;;;;;4938620;29;20675;-75
2021/06/09 12:09:36;;;;;;;0.10;0.10;;;28.00;58.00;;;;;;4938541;29;20226;-74
2021/06/09 12:12:10;;;;;;;0.10;0.10;;;28.40;56.30;;;;;;4938694;29;20206;-75
2021/06/09 12:14:39;;;;;;;0.10;0.10;;;28.80;57.30;;;;;;4938531;29;20321;-75
2021/06/09 12:17:22;;;;;;;0.10;0.10;;;28.70;55.70;;;;;;4938127;29;20269;-75
2021/06/09 12:19:52;;;;;;;0.10;0.10;;;29.00;55.10;;;;;;4938696;29;20260;-75
2021/06/09 12:22:21;;;;;;;0.10;0.10;;;29.10;55.50;;;;;;4938572;29;20253;-75
2021/06/09 12:25:01;;;;;;;0.10;0.10;;;28.60;55.00;;;;;;4938154;29;20293;-75
2021/06/09 12:27:31;;;;;;;0.10;0.10;;;28.60;56.30;;;;;;4938002;29;20626;-75
2021/06/09 12:30:01;;;;;;;0.10;0.10;;;28.50;56.20;;;;;;4938470;29;20226;-75
2021/06/09 12:32:31;;;;;;;0.10;0.10;;;28.80;55.60;;;;;;4938607;29;20210;-75
2021/06/09 12:35:03;;;;;;;0.10;0.10;;;28.90;56.70;;;;;;4937935;29;20769;-75
2021/06/09 12:37:32;;;;;;;0.10;0.10;;;29.00;54.90;;;;;;4929230;29;20563;-75
2021/06/09 12:40:07;;;;;;;0.10;0.10;;;29.20;54.80;;;;;;4926646;29;20207;-75
2021/06/09 12:42:36;;;;;;;0.10;0.10;;;29.70;53.20;;;;;;4920073;29;20572;-74
2021/06/09 12:45:06;;;;;;;0.10;0.10;;;29.80;54.20;;;;;;4918996;29;20227;-72
2021/06/09 12:47:36;;;;;;;0.10;0.10;;;29.60;54.70;;;;;;4919551;29;20254;-74
2021/06/09 12:50:22;;;;;;;0.10;0.10;;;29.20;55.80;;;;;;4919060;29;20207;-72
2021/06/09 12:52:52;;;;;;;0.10;0.10;;;28.40;54.00;;;;;;4919086;29;20238;-72
2021/06/09 12:55:24;;;;;;;0.10;0.10;;;28.60;54.60;;;;;;4922473;29;20227;-72
2021/06/09 12:57:54;;;;;;;0.10;0.10;;;28.80;55.10;;;;;;4926689;29;20190;-72
2021/06/09 13:00:31;;;;;;;0.10;0.10;;;29.30;54.90;;;;;;4924682;29;20191;-72
2021/06/09 13:03:14;;;;;;;0.10;0.10;;;29.20;55.60;;;;;;4929129;29;20194;-72
2021/06/09 13:05:43;;;;;;;0.10;0.10;;;30.10;53.60;;;;;;4924280;29;20215;-72
2021/06/09 13:08:12;;;;;;;0.10;0.10;;;30.40;55.20;;;;;;4932550;29;20223;-72
2021/06/09 13:10:39;;;;;;;0.10;0.10;;;30.80;53.00;;;;;;4926069;29;20276;-72
2021/06/09 13:13:11;;;;;;;0.10;0.10;;;31.20;50.90;;;;;;4925572;29;20201;-72
2021/06/09 13:15:38;;;;;;;0.10;0.10;;;31.30;51.20;;;;;;4925713;29;20254;-72
2021/06/09 13:18:06;;;;;;;0.10;0.10;;;30.80;50.80;;;;;;4928568;29;20198;-72
2021/06/09 13:20:35;;;;;;;0.10;0.10;;;31.90;51.00;;;;;;4925518;29;20734;-73
2021/06/09 13:23:08;;;;;;;0.10;0.10;;;32.90;49.60;;;;;;4928387;29;20212;-72
2021/06/09 13:25:36;;;;;;;0.00;0.00;;;33.60;48.00;;;;;;4918492;29;20238;-75
2021/06/09 13:28:04;;;;;;;0.00;0.00;;;33.60;47.10;;;;;;4918445;29;20334;-76
2021/06/09 13:30:33;;;;;;;0.03;0.03;;;33.80;47.00;;;;;;4917002;29;20621;-75
2021/06/09 13:33:02;;;;;;;0.00;0.00;;;34.30;46.10;;;;;;4918078;29;20206;-76
2021/06/09 13:35:29;;;;;;;0.03;0.03;;;33.30;45.70;;;;;;4917804;29;20218;-75
2021/06/09 13:38:00;;;;;;;0.10;0.10;;;33.10;46.30;;;;;;4918120;29;20250;-76
2021/06/09 13:40:30;;;;;;;0.10;0.10;;;33.00;46.50;;;;;;4917990;29;20679;-76
2021/06/09 13:43:04;;;;;;;0.00;0.00;;;33.00;46.00;;;;;;4917996;29;20202;-76
2021/06/09 13:45:37;;;;;;;0.10;0.10;;;33.10;46.10;;;;;;4923384;29;20225;-75
2021/06/09 13:48:07;;;;;;;0.10;0.10;;;33.00;46.30;;;;;;4936809;29;20737;-74
2021/06/09 13:50:36;;;;;;;0.10;0.10;;;32.70;47.00;;;;;;4936813;29;20288;-76
2021/06/09 13:53:05;;;;;;;0.10;0.10;;;32.00;46.80;;;;;;4936715;29;20265;-77
2021/06/09 13:55:39;;;;;;;0.10;0.10;;;30.90;50.50;;;;;;4937083;29;20269;-79
2021/06/09 13:58:21;;;;;;;0.10;0.10;;;30.60;49.10;;;;;;4940215;29;20210;-77
2021/06/09 14:00:51;;;;;;;0.10;0.10;;;30.20;50.70;;;;;;4939073;29;20248;-76
2021/06/09 14:03:22;;;;;;;0.10;0.10;;;29.80;50.60;;;;;;4934860;29;20209;-75
2021/06/09 14:05:49;;;;;;;0.10;0.10;;;29.60;50.90;;;;;;4925359;29;20260;-76
2021/06/09 14:08:18;;;;;;;0.10;0.10;;;29.40;51.20;;;;;;4932057;29;20240;-75
2021/06/09 14:10:48;;;;;;;0.10;0.10;;;29.40;53.00;;;;;;4933562;29;20270;-76
2021/06/09 14:13:17;;;;;;;0.10;0.10;;;;;;;;;;4924902;29;20571;-75
2021/06/09 14:15:54;;;;;;;0.10;0.10;;;29.20;73.70;;;;;;4924440;29;20222;-75
2021/06/09 14:18:22;;;;;;;0.10;0.10;;;28.90;53.80;;;;;;4919843;29;20206;-75
2021/06/09 14:20:51;;;;;;;0.10;0.10;;;29.10;54.30;;;;;;4917314;29;20207;-75
2021/06/09 14:23:23;;;;;;;0.10;0.10;;;29.00;53.80;;;;;;4918346;29;20209;-76
2021/06/09 14:25:53;;;;;;;0.10;0.10;;;28.90;54.20;;;;;;4917452;29;20237;-75
2021/06/09 14:28:30;;;;;;;0.10;0.10;;;28.80;52.10;;;;;;4921715;29;20198;-79
2021/06/09 14:31:01;;;;;;;0.10;0.10;;;28.90;54.10;;;;;;4932943;29;20225;-76
2021/06/09 14:33:32;;;;;;;0.10;0.10;;;29.00;88.90;;;;;;4930161;29;20262;-75
2021/06/09 14:36:07;;;;;;;0.10;0.10;;;28.60;52.30;;;;;;4905015;29;20591;-75
2021/06/09 14:38:37;;;;;;;0.10;0.10;;;28.20;58.60;;;;;;4921546;29;20203;-77
2021/06/09 14:41:16;;;;;;;0.10;0.10;;;28.20;52.10;;;;;;4926994;29;20202;-73
2021/06/09 14:43:55;;;;;;;0.10;0.10;;;28.00;53.00;;;;;;4926626;29;20198;-73
2021/06/09 14:46:27;;;;;;;0.10;0.10;;;28.00;53.20;;;;;;4927793;29;20274;-74
2021/06/09 14:48:55;;;;;;;0.10;0.10;;;28.10;54.40;;;;;;4925627;29;20282;-73
2021/06/09 14:51:28;;;;;;;0.10;0.10;;;28.30;54.00;;;;;;4923258;29;20230;-72
2021/06/09 14:53:56;;;;;;;0.10;0.10;;;28.40;54.60;;;;;;4932329;29;20207;-73
2021/06/09 14:56:27;;;;;;;0.10;0.10;;;28.30;53.60;;;;;;4938964;29;20265;-76
2021/06/09 14:59:01;;;;;;;0.10;0.10;;;28.20;52.80;;;;;;4952172;29;20213;-74
2021/06/09 15:01:32;;;;;;;0.10;0.10;;;28.20;53.40;;;;;;4928697;29;20719;-69
2021/06/09 15:04:02;;;;;;;0.10;0.10;;;28.10;52.90;;;;;;4931818;29;20233;-73
2021/06/09 15:06:29;;;;;;;0.10;0.10;;;28.00;53.30;;;;;;4935540;29;20280;-72
2021/06/09 15:08:56;;;;;;;0.10;0.10;;;27.80;53.10;;;;;;4938520;29;20222;-73
2021/06/09 15:11:33;;;;;;;0.10;0.10;;;27.60;53.30;;;;;;4938406;29;20300;-74
2021/06/09 15:14:02;;;;;;;0.10;0.10;;;27.60;54.90;;;;;;4926603;29;20686;-71
2021/06/09 15:16:31;;;;;;;0.10;0.10;;;27.50;52.90;;;;;;4926826;29;20715;-73
2021/06/09 15:18:58;;;;;;;0.10;0.10;;;27.70;55.60;;;;;;4923074;29;20245;-73
2021/06/09 15:21:26;;;;;;;0.10;0.10;;;27.90;53.40;;;;;;4924660;29;20273;-73
2021/06/09 15:23:53;;;;;;;0.10;0.10;;;28.10;53.20;;;;;;4927405;29;20300;-73
2021/06/09 15:26:20;;;;;;;0.10;0.10;;;28.20;53.00;;;;;;4922357;29;20256;-76
2021/06/09 15:28:48;;;;;;;0.10;0.10;;;28.30;53.90;;;;;;4927248;29;20223;-75
2021/06/09 15:31:15;;;;;;;0.10;0.10;;;28.50;53.50;;;;;;4927248;29;20214;-76
2021/06/09 15:33:44;;;;;;;0.10;0.10;;;28.50;52.60;;;;;;4928484;29;20198;-76
2021/06/09 15:36:11;;;;;;;0.10;0.10;;;28.50;53.80;;;;;;4926328;29;20223;-75
2021/06/09 15:38:38;;;;;;;0.10;0.10;;;28.50;52.50;;;;;;4927301;29;20209;-74
2021/06/09 15:41:06;;;;;;;0.10;0.10;;;28.30;52.40;;;;;;4927721;29;20571;-77
2021/06/09 15:43:35;;;;;;;0.10;0.10;;;27.90;52.10;;;;;;4928830;29;20572;-77
2021/06/09 15:46:04;;;;;;;0.10;0.10;;;27.60;52.70;;;;;;4929427;29;20225;-77
2021/06/09 15:48:31;;;;;;;0.10;0.10;;;27.60;52.60;;;;;;4927903;29;20202;-78
2021/06/09 15:51:01;;;;;;;0.10;0.10;;;27.40;53.10;;;;;;4928306;29;20218;-77
2021/06/09 15:53:33;;;;;;;0.10;0.10;;;27.60;55.00;;;;;;4934284;29;20197;-78
2021/06/09 15:56:01;;;;;;;0.10;0.10;;;27.50;53.50;;;;;;4923804;29;20251;-80
2021/06/09 15:58:28;;;;;;;0.10;0.10;;;27.50;53.80;;;;;;4932702;29;20216;-79
2021/06/09 16:00:56;;;;;;;0.10;0.10;;;27.60;55.10;;;;;;4929568;29;20257;-79
2021/06/09 16:03:23;;;;;;;0.10;0.10;;;27.70;54.10;;;;;;4931909;29;20281;-79
2021/06/09 16:05:51;;;;;;;0.10;0.10;;;27.70;53.40;;;;;;4922073;29;20227;-81
2021/06/09 16:08:20;;;;;;;0.10;0.10;;;27.60;53.50;;;;;;4934665;29;20726;-77
2021/06/09 16:10:47;;;;;;;0.10;0.10;;;27.50;53.60;;;;;;4934731;29;20229;-77
2021/06/09 16:13:15;;;;;;;0.10;0.10;;;27.60;53.10;;;;;;4934881;29;20205;-77
2021/06/09 16:15:42;;;;;;;0.10;0.10;;;27.60;53.40;;;;;;4935007;29;20230;-76
2021/06/09 16:18:10;;;;;;;0.10;0.10;;;27.60;53.30;;;;;;4934440;29;20206;-77
2021/06/09 16:20:38;;;;;;;0.20;0.20;;;27.90;53.30;;;;;;4928054;29;20203;-77
2021/06/09 16:23:05;;;;;;;0.10;0.10;;;28.10;53.50;;;;;;4915785;29;20210;-77
2021/06/09 16:25:34;;;;;;;0.10;0.10;;;28.40;51.40;;;;;;4915251;29;20270;-76
2021/06/09 16:28:01;;;;;;;0.10;0.10;;;28.80;51.50;;;;;;4921265;29;20206;-77
2021/06/09 16:30:29;;;;;;;0.10;0.10;;;28.90;50.90;;;;;;4931185;29;20259;-77
2021/06/09 16:33:01;;;;;;;0.10;0.10;;;28.90;51.00;;;;;;4933576;29;20614;-78
2021/06/09 16:35:29;;;;;;;0.10;0.10;;;28.60;51.60;;;;;;4934357;29;20229;-77
2021/06/09 16:38:02;;;;;;;0.10;0.10;;;28.10;51.70;;;;;;4927555;29;20727;-76
2021/06/09 16:40:30;;;;;;;0.10;0.10;;;27.90;52.00;;;;;;4924079;29;20631;-77
2021/06/09 16:43:00;;;;;;;0.10;0.10;;;27.80;52.90;;;;;;4934536;29;20230;-77
2021/06/09 16:45:29;;;;;;;0.10;0.10;;;27.80;54.00;;;;;;4935115;29;20290;-76
2021/06/09 16:47:57;;;;;;;0.10;0.10;;;27.70;56.20;;;;;;4935109;29;20252;-78
2021/06/09 16:50:25;;;;;;;0.10;0.10;;;27.60;55.90;;;;;;4937334;29;20229;-77
2021/06/09 16:52:53;;;;;;;0.10;0.10;;;27.50;54.10;;;;;;4938523;29;20671;-77
2021/06/09 16:55:25;;;;;;;0.10;0.10;;;27.70;53.40;;;;;;4939217;29;20228;-78
2021/06/09 17:00:46;;;;;;;0.10;0.10;;;28.20;53.00;;;;;;4931276;29;20194;-80
2021/06/09 17:03:14;;;;;;;0.10;0.10;;;29.00;54.60;;;;;;4925926;29;20707;-73
2021/06/09 17:05:44;;;;;;;0.20;0.20;;;29.90;52.40;;;;;;4944807;29;20222;-73
2021/06/09 17:08:14;;;;;;;0.10;0.10;;;30.70;49.40;;;;;;4925824;29;20198;-73
2021/06/09 17:10:41;;;;;;;0.10;0.10;;;32.00;50.40;;;;;;4918006;29;20278;-73
2021/06/09 17:13:10;;;;;;;0.10;0.10;;;33.10;47.00;;;;;;4918498;29;20250;-73
2021/06/09 17:15:38;;;;;;;0.10;0.10;;;34.20;48.50;;;;;;4917751;29;20726;-73
2021/06/09 17:18:09;;;;;;;0.00;0.00;;;34.40;43.30;;;;;;4923030;29;20260;-73